YBLN

Busselton Regional Airport

Airport
ICAO code
YBLN
IATA Code
BQB
Summary
ICAO Region
APAC
ICAO Territory
Location

Brusselton, Western Australia

Serving
Brusselton
Elevation
55 ft
Coordinates
33° 41' 14" S , 115° 24' 1" E
Metar
Observation
YBLN 021300Z AUTO 19007KT 9999 // NCD 16/12 Q1012 RF00.0/000.0
Station
Busselton Airport
Date/Time
2022-12-02 13:00:00
Wind direction
190°
Wind speed
07 kts
Lowest cloud amount
no clouds detected
Temperature
16°C
Dew point
12°C
Humidity
77%
QNH
1012 hPa
Weather condition
n/a

Airport map

Aerial View

SKYbrary Partners:

Safety knowledge contributed by: